sensor_id;sensor_type;location;lat;lon;timestamp;temperature;humidity
4643;DHT22;2334;48.710;9.622;2023-02-14T00:01:36;-0.10;99.90
4643;DHT22;2334;48.710;9.622;2023-02-14T00:04:04;-0.10;99.90
4643;DHT22;2334;48.710;9.622;2023-02-14T00:06:31;-0.20;99.90
4643;DHT22;2334;48.710;9.622;2023-02-14T00:09:00;-0.30;99.90
4643;DHT22;2334;48.710;9.622;2023-02-14T00:11:27;-0.30;99.90
4643;DHT22;2334;48.710;9.622;2023-02-14T00:13:56;-0.30;99.90
4643;DHT22;2334;48.710;9.622;2023-02-14T00:16:41;-0.40;99.90
4643;DHT22;2334;48.710;9.622;2023-02-14T00:19:10;-0.40;99.90
4643;DHT22;2334;48.710;9.622;2023-02-14T00:21:38;-0.40;99.90
4643;DHT22;2334;48.710;9.622;2023-02-14T00:24:08;-0.50;99.90
4643;DHT22;2334;48.710;9.622;2023-02-14T00:26:35;-0.60;99.90
4643;DHT22;2334;48.710;9.622;2023-02-14T00:29:05;-0.50;99.90
4643;DHT22;2334;48.710;9.622;2023-02-14T00:31:32;-0.60;99.90
4643;DHT22;2334;48.710;9.622;2023-02-14T00:33:59;-0.70;99.90
4643;DHT22;2334;48.710;9.622;2023-02-14T00:36:26;-0.70;99.90
4643;DHT22;2334;48.710;9.622;2023-02-14T00:38:53;-0.70;99.90
4643;DHT22;2334;48.710;9.622;2023-02-14T00:41:20;-0.80;99.90
4643;DHT22;2334;48.710;9.622;2023-02-14T00:43:48;-0.80;99.90
4643;DHT22;2334;48.710;9.622;2023-02-14T00:46:18;-0.80;99.90
4643;DHT22;2334;48.710;9.622;2023-02-14T00:48:45;-0.90;99.90
4643;DHT22;2334;48.710;9.622;2023-02-14T00:51:13;-0.90;99.90
4643;DHT22;2334;48.710;9.622;2023-02-14T00:53:40;-0.90;99.90
4643;DHT22;2334;48.710;9.622;2023-02-14T00:56:07;-1.00;99.90
4643;DHT22;2334;48.710;9.622;2023-02-14T00:58:34;-1.00;99.90
4643;DHT22;2334;48.710;9.622;2023-02-14T01:01:01;-1.00;99.90
4643;DHT22;2334;48.710;9.622;2023-02-14T01:03:30;-1.10;99.90
4643;DHT22;2334;48.710;9.622;2023-02-14T01:05:56;-1.10;99.90
4643;DHT22;2334;48.710;9.622;2023-02-14T01:08:24;-1.10;99.90
4643;DHT22;2334;48.710;9.622;2023-02-14T01:10:51;-1.10;99.90
4643;DHT22;2334;48.710;9.622;2023-02-14T01:13:18;-1.10;99.90
4643;DHT22;2334;48.710;9.622;2023-02-14T01:15:49;-1.20;99.90
4643;DHT22;2334;48.710;9.622;2023-02-14T01:18:17;-1.10;99.90
4643;DHT22;2334;48.710;9.622;2023-02-14T01:20:46;-1.10;99.90
4643;DHT22;2334;48.710;9.622;2023-02-14T01:23:13;-1.10;99.90
4643;DHT22;2334;48.710;9.622;2023-02-14T01:25:40;-1.20;99.90
4643;DHT22;2334;48.710;9.622;2023-02-14T01:28:06;-1.30;99.90
4643;DHT22;2334;48.710;9.622;2023-02-14T01:30:33;-1.30;99.90
4643;DHT22;2334;48.710;9.622;2023-02-14T01:33:01;-1.30;99.90
4643;DHT22;2334;48.710;9.622;2023-02-14T01:35:28;-1.30;99.90
4643;DHT22;2334;48.710;9.622;2023-02-14T01:37:56;-1.30;99.90
4643;DHT22;2334;48.710;9.622;2023-02-14T01:40:23;-1.30;99.90
4643;DHT22;2334;48.710;9.622;2023-02-14T01:42:50;-1.30;99.90
4643;DHT22;2334;48.710;9.622;2023-02-14T01:45:18;-1.40;99.90
4643;DHT22;2334;48.710;9.622;2023-02-14T01:47:49;-1.50;99.90
4643;DHT22;2334;48.710;9.622;2023-02-14T01:50:19;-1.50;99.90
4643;DHT22;2334;48.710;9.622;2023-02-14T01:52:50;-1.50;99.90
4643;DHT22;2334;48.710;9.622;2023-02-14T01:55:24;-1.50;99.90
4643;DHT22;2334;48.710;9.622;2023-02-14T01:57:56;-1.50;99.90
4643;DHT22;2334;48.710;9.622;2023-02-14T02:00:24;-1.50;99.90
4643;DHT22;2334;48.710;9.622;2023-02-14T02:03:08;-1.50;99.90
4643;DHT22;2334;48.710;9.622;2023-02-14T02:05:39;-1.40;99.90
4643;DHT22;2334;48.710;9.622;2023-02-14T02:08:07;-1.40;99.90
4643;DHT22;2334;48.710;9.622;2023-02-14T02:10:36;-1.30;99.90
4643;DHT22;2334;48.710;9.622;2023-02-14T02:13:06;-1.20;99.90
4643;DHT22;2334;48.710;9.622;2023-02-14T02:15:37;-1.10;99.90
4643;DHT22;2334;48.710;9.622;2023-02-14T02:18:11;-1.00;99.90
4643;DHT22;2334;48.710;9.622;2023-02-14T02:21:12;-1.00;99.90
4643;DHT22;2334;48.710;9.622;2023-02-14T02:24:12;-1.00;99.90
4643;DHT22;2334;48.710;9.622;2023-02-14T02:33:24;-0.90;99.90
4643;DHT22;2334;48.710;9.622;2023-02-14T02:36:18;-0.90;99.90
4643;DHT22;2334;48.710;9.622;2023-02-14T02:38:58;-0.90;99.90
4643;DHT22;2334;48.710;9.622;2023-02-14T02:41:33;-0.90;99.90
4643;DHT22;2334;48.710;9.622;2023-02-14T02:44:09;-1.00;99.90
4643;DHT22;2334;48.710;9.622;2023-02-14T02:46:39;-1.00;99.90
4643;DHT22;2334;48.710;9.622;2023-02-14T02:49:20;-1.00;99.90
4643;DHT22;2334;48.710;9.622;2023-02-14T02:52:09;-1.00;99.90
4643;DHT22;2334;48.710;9.622;2023-02-14T02:55:01;-1.10;99.90
4643;DHT22;2334;48.710;9.622;2023-02-14T02:57:33;-1.10;99.90
4643;DHT22;2334;48.710;9.622;2023-02-14T03:00:03;-1.10;99.90
4643;DHT22;2334;48.710;9.622;2023-02-14T03:02:34;-1.10;99.90
4643;DHT22;2334;48.710;9.622;2023-02-14T03:05:23;-1.10;99.90
4643;DHT22;2334;48.710;9.622;2023-02-14T03:07:51;-1.10;99.90
4643;DHT22;2334;48.710;9.622;2023-02-14T03:10:20;-1.10;99.90
4643;DHT22;2334;48.710;9.622;2023-02-14T03:13:24;-1.10;99.90
4643;DHT22;2334;48.710;9.622;2023-02-14T03:16:21;-1.10;99.90
4643;DHT22;2334;48.710;9.622;2023-02-14T03:21:45;-1.10;99.90
4643;DHT22;2334;48.710;9.622;2023-02-14T03:24:23;-1.10;99.90
4643;DHT22;2334;48.710;9.622;2023-02-14T03:26:56;-1.10;99.90
4643;DHT22;2334;48.710;9.622;2023-02-14T03:29:30;-1.10;99.90
4643;DHT22;2334;48.710;9.622;2023-02-14T03:32:06;-1.10;99.90
4643;DHT22;2334;48.710;9.622;2023-02-14T03:34:45;-1.10;99.90
4643;DHT22;2334;48.710;9.622;2023-02-14T03:37:16;-1.10;99.90
4643;DHT22;2334;48.710;9.622;2023-02-14T03:39:54;-1.10;99.90
4643;DHT22;2334;48.710;9.622;2023-02-14T03:42:26;-1.10;99.90
4643;DHT22;2334;48.710;9.622;2023-02-14T03:44:56;-1.10;99.90
4643;DHT22;2334;48.710;9.622;2023-02-14T03:47:27;-1.10;99.90
4643;DHT22;2334;48.710;9.622;2023-02-14T03:50:02;-1.10;99.90
4643;DHT22;2334;48.710;9.622;2023-02-14T03:52:31;-1.10;99.90
4643;DHT22;2334;48.710;9.622;2023-02-14T03:55:02;-1.10;99.90
4643;DHT22;2334;48.710;9.622;2023-02-14T03:57:35;-1.10;99.90
4643;DHT22;2334;48.710;9.622;2023-02-14T04:00:05;-1.10;99.90
4643;DHT22;2334;48.710;9.622;2023-02-14T04:02:35;-1.20;99.90
4643;DHT22;2334;48.710;9.622;2023-02-14T04:05:08;-1.20;99.90
4643;DHT22;2334;48.710;9.622;2023-02-14T04:07:44;-1.20;99.90
4643;DHT22;2334;48.710;9.622;2023-02-14T04:10:14;-1.20;99.90
4643;DHT22;2334;48.710;9.622;2023-02-14T04:12:41;-1.30;99.90
4643;DHT22;2334;48.710;9.622;2023-02-14T04:15:08;-1.30;99.90
4643;DHT22;2334;48.710;9.622;2023-02-14T04:17:36;-1.30;99.90
4643;DHT22;2334;48.710;9.622;2023-02-14T04:20:20;-1.30;99.90
4643;DHT22;2334;48.710;9.622;2023-02-14T04:22:48;-1.30;99.90
4643;DHT22;2334;48.710;9.622;2023-02-14T04:25:18;-1.30;99.90
4643;DHT22;2334;48.710;9.622;2023-02-14T04:27:45;-1.30;99.90
4643;DHT22;2334;48.710;9.622;2023-02-14T04:30:12;-1.30;99.90
4643;DHT22;2334;48.710;9.622;2023-02-14T04:32:39;-1.20;99.90
4643;DHT22;2334;48.710;9.622;2023-02-14T04:35:06;-1.20;99.90
4643;DHT22;2334;48.710;9.622;2023-02-14T04:37:33;-1.20;99.90
4643;DHT22;2334;48.710;9.622;2023-02-14T04:40:00;-1.20;99.90
4643;DHT22;2334;48.710;9.622;2023-02-14T04:42:29;-1.20;99.90
4643;DHT22;2334;48.710;9.622;2023-02-14T04:44:55;-1.20;99.90
4643;DHT22;2334;48.710;9.622;2023-02-14T04:47:23;-1.10;99.90
4643;DHT22;2334;48.710;9.622;2023-02-14T04:49:50;-1.10;99.90
4643;DHT22;2334;48.710;9.622;2023-02-14T04:52:17;-1.10;99.90
4643;DHT22;2334;48.710;9.622;2023-02-14T04:54:44;-1.10;99.90
4643;DHT22;2334;48.710;9.622;2023-02-14T04:57:11;-1.20;99.90
4643;DHT22;2334;48.710;9.622;2023-02-14T04:59:39;-1.20;99.90
4643;DHT22;2334;48.710;9.622;2023-02-14T05:02:06;-1.20;99.90
4643;DHT22;2334;48.710;9.622;2023-02-14T05:04:32;-1.20;99.90
4643;DHT22;2334;48.710;9.622;2023-02-14T05:06:59;-1.20;99.90
4643;DHT22;2334;48.710;9.622;2023-02-14T05:09:26;-1.20;99.90
4643;DHT22;2334;48.710;9.622;2023-02-14T05:11:54;-1.20;99.90
4643;DHT22;2334;48.710;9.622;2023-02-14T05:14:21;-1.20;99.90
4643;DHT22;2334;48.710;9.622;2023-02-14T05:16:49;-1.20;99.90
4643;DHT22;2334;48.710;9.622;2023-02-14T05:19:16;-1.20;99.90
4643;DHT22;2334;48.710;9.622;2023-02-14T05:21:43;-1.10;99.90
4643;DHT22;2334;48.710;9.622;2023-02-14T05:24:09;-1.10;99.90
4643;DHT22;2334;48.710;9.622;2023-02-14T05:26:36;-1.00;99.90
4643;DHT22;2334;48.710;9.622;2023-02-14T05:29:03;-0.80;99.90
4643;DHT22;2334;48.710;9.622;2023-02-14T05:31:30;-0.80;99.90
4643;DHT22;2334;48.710;9.622;2023-02-14T05:33:58;-0.70;99.90
4643;DHT22;2334;48.710;9.622;2023-02-14T05:36:25;-0.50;99.90
4643;DHT22;2334;48.710;9.622;2023-02-14T05:38:52;-0.30;99.90
4643;DHT22;2334;48.710;9.622;2023-02-14T05:41:19;-0.30;99.90
4643;DHT22;2334;48.710;9.622;2023-02-14T05:43:46;-0.30;99.90
4643;DHT22;2334;48.710;9.622;2023-02-14T05:46:13;-0.40;99.90
4643;DHT22;2334;48.710;9.622;2023-02-14T05:48:40;-0.30;99.90
4643;DHT22;2334;48.710;9.622;2023-02-14T05:51:10;-0.30;99.90
4643;DHT22;2334;48.710;9.622;2023-02-14T05:53:37;-0.20;99.90
4643;DHT22;2334;48.710;9.622;2023-02-14T05:56:05;-0.20;99.90
4643;DHT22;2334;48.710;9.622;2023-02-14T05:58:32;-0.20;99.90
4643;DHT22;2334;48.710;9.622;2023-02-14T06:00:59;-0.20;99.90
4643;DHT22;2334;48.710;9.622;2023-02-14T06:03:26;-0.20;99.90
4643;DHT22;2334;48.710;9.622;2023-02-14T06:05:53;-0.20;99.90
4643;DHT22;2334;48.710;9.622;2023-02-14T06:08:22;-0.20;99.90
4643;DHT22;2334;48.710;9.622;2023-02-14T06:10:48;-0.20;99.90
4643;DHT22;2334;48.710;9.622;2023-02-14T06:13:15;-0.20;99.90
4643;DHT22;2334;48.710;9.622;2023-02-14T06:15:42;-0.10;99.90
4643;DHT22;2334;48.710;9.622;2023-02-14T06:18:09;-0.10;99.90
4643;DHT22;2334;48.710;9.622;2023-02-14T06:20:36;-0.10;99.90
4643;DHT22;2334;48.710;9.622;2023-02-14T06:23:03;-0.20;99.90
4643;DHT22;2334;48.710;9.622;2023-02-14T06:25:31;-0.20;99.90
4643;DHT22;2334;48.710;9.622;2023-02-14T06:27:58;-0.20;99.90
4643;DHT22;2334;48.710;9.622;2023-02-14T06:30:26;-0.30;99.90
4643;DHT22;2334;48.710;9.622;2023-02-14T06:32:53;-0.30;99.90
4643;DHT22;2334;48.710;9.622;2023-02-14T06:35:20;-0.30;99.90
4643;DHT22;2334;48.710;9.622;2023-02-14T06:37:47;-0.20;99.90
4643;DHT22;2334;48.710;9.622;2023-02-14T06:40:14;-0.20;99.90
4643;DHT22;2334;48.710;9.622;2023-02-14T06:42:42;-0.30;99.90
4643;DHT22;2334;48.710;9.622;2023-02-14T06:45:09;-0.30;99.90
4643;DHT22;2334;48.710;9.622;2023-02-14T06:47:36;-0.30;99.90
4643;DHT22;2334;48.710;9.622;2023-02-14T06:50:04;-0.40;99.90
4643;DHT22;2334;48.710;9.622;2023-02-14T06:52:32;-0.60;99.90
4643;DHT22;2334;48.710;9.622;2023-02-14T06:54:59;-0.80;99.90
4643;DHT22;2334;48.710;9.622;2023-02-14T06:57:26;-0.90;99.90
4643;DHT22;2334;48.710;9.622;2023-02-14T06:59:54;-1.00;99.90
4643;DHT22;2334;48.710;9.622;2023-02-14T07:02:21;-1.10;99.90
4643;DHT22;2334;48.710;9.622;2023-02-14T07:04:48;-1.10;99.90
4643;DHT22;2334;48.710;9.622;2023-02-14T07:07:15;-1.00;99.90
4643;DHT22;2334;48.710;9.622;2023-02-14T07:09:45;-1.10;99.90
4643;DHT22;2334;48.710;9.622;2023-02-14T07:12:11;-1.10;99.90
4643;DHT22;2334;48.710;9.622;2023-02-14T07:14:38;-1.20;99.90
4643;DHT22;2334;48.710;9.622;2023-02-14T07:17:07;-1.10;99.90
4643;DHT22;2334;48.710;9.622;2023-02-14T07:19:34;-1.10;99.90
4643;DHT22;2334;48.710;9.622;2023-02-14T07:22:01;-1.10;99.90
4643;DHT22;2334;48.710;9.622;2023-02-14T07:24:28;-1.20;99.90
4643;DHT22;2334;48.710;9.622;2023-02-14T07:26:54;-1.20;99.90
4643;DHT22;2334;48.710;9.622;2023-02-14T07:29:21;-1.20;99.90
4643;DHT22;2334;48.710;9.622;2023-02-14T07:31:48;-1.10;99.90
4643;DHT22;2334;48.710;9.622;2023-02-14T07:34:16;-1.10;99.90
4643;DHT22;2334;48.710;9.622;2023-02-14T07:36:43;-1.00;99.90
4643;DHT22;2334;48.710;9.622;2023-02-14T07:39:10;-1.00;99.90
4643;DHT22;2334;48.710;9.622;2023-02-14T07:41:37;-1.10;99.90
4643;DHT22;2334;48.710;9.622;2023-02-14T07:44:04;-1.00;99.90
4643;DHT22;2334;48.710;9.622;2023-02-14T07:46:31;-1.00;99.90
4643;DHT22;2334;48.710;9.622;2023-02-14T07:48:58;-0.90;99.90
4643;DHT22;2334;48.710;9.622;2023-02-14T07:51:26;-0.90;99.90
4643;DHT22;2334;48.710;9.622;2023-02-14T07:53:53;-0.90;99.90
4643;DHT22;2334;48.710;9.622;2023-02-14T07:56:20;-0.90;99.90
4643;DHT22;2334;48.710;9.622;2023-02-14T07:58:46;-0.80;99.90
4643;DHT22;2334;48.710;9.622;2023-02-14T08:01:16;-0.70;99.90
4643;DHT22;2334;48.710;9.622;2023-02-14T08:03:43;-0.70;99.90
4643;DHT22;2334;48.710;9.622;2023-02-14T08:06:14;-0.60;99.90
4643;DHT22;2334;48.710;9.622;2023-02-14T08:08:43;-0.50;99.90
4643;DHT22;2334;48.710;9.622;2023-02-14T08:11:11;-0.40;99.90
4643;DHT22;2334;48.710;9.622;2023-02-14T08:13:58;-0.40;99.90
4643;DHT22;2334;48.710;9.622;2023-02-14T08:16:25;-0.20;99.90
4643;DHT22;2334;48.710;9.622;2023-02-14T08:18:51;-0.10;99.90
4643;DHT22;2334;48.710;9.622;2023-02-14T08:21:18;0.10;99.90
4643;DHT22;2334;48.710;9.622;2023-02-14T08:23:47;0.10;99.90
4643;DHT22;2334;48.710;9.622;2023-02-14T08:26:13;0.20;99.90
4643;DHT22;2334;48.710;9.622;2023-02-14T08:28:41;0.30;99.90
4643;DHT22;2334;48.710;9.622;2023-02-14T08:31:09;0.40;99.90
4643;DHT22;2334;48.710;9.622;2023-02-14T08:33:36;0.50;99.90
4643;DHT22;2334;48.710;9.622;2023-02-14T08:36:04;0.50;99.90
4643;DHT22;2334;48.710;9.622;2023-02-14T08:38:31;0.70;99.90
4643;DHT22;2334;48.710;9.622;2023-02-14T08:41:02;0.80;99.90
4643;DHT22;2334;48.710;9.622;2023-02-14T08:43:29;1.00;99.90
4643;DHT22;2334;48.710;9.622;2023-02-14T08:45:56;1.20;99.90
4643;DHT22;2334;48.710;9.622;2023-02-14T08:48:23;1.30;99.90
4643;DHT22;2334;48.710;9.622;2023-02-14T08:50:51;1.50;99.90
4643;DHT22;2334;48.710;9.622;2023-02-14T08:53:18;1.60;99.90
4643;DHT22;2334;48.710;9.622;2023-02-14T08:55:46;1.80;99.90
4643;DHT22;2334;48.710;9.622;2023-02-14T08:58:14;1.90;99.90
4643;DHT22;2334;48.710;9.622;2023-02-14T09:00:41;2.00;99.90
4643;DHT22;2334;48.710;9.622;2023-02-14T09:03:08;2.20;99.90
4643;DHT22;2334;48.710;9.622;2023-02-14T09:05:36;2.30;99.90
4643;DHT22;2334;48.710;9.622;2023-02-14T09:08:03;2.50;99.90
4643;DHT22;2334;48.710;9.622;2023-02-14T09:10:29;2.60;99.90
4643;DHT22;2334;48.710;9.622;2023-02-14T09:12:57;2.70;99.90
4643;DHT22;2334;48.710;9.622;2023-02-14T09:15:25;2.90;99.90
4643;DHT22;2334;48.710;9.622;2023-02-14T09:17:52;3.00;99.90
4643;DHT22;2334;48.710;9.622;2023-02-14T09:20:19;3.20;99.90
4643;DHT22;2334;48.710;9.622;2023-02-14T09:22:48;3.30;99.90
4643;DHT22;2334;48.710;9.622;2023-02-14T09:25:15;3.50;99.90
4643;DHT22;2334;48.710;9.622;2023-02-14T09:27:42;3.60;99.90
4643;DHT22;2334;48.710;9.622;2023-02-14T09:30:10;3.50;99.90
4643;DHT22;2334;48.710;9.622;2023-02-14T09:32:39;3.70;99.90
4643;DHT22;2334;48.710;9.622;2023-02-14T09:35:06;3.90;99.90
4643;DHT22;2334;48.710;9.622;2023-02-14T09:37:34;4.10;99.90
4643;DHT22;2334;48.710;9.622;2023-02-14T09:40:01;4.10;99.90
4643;DHT22;2334;48.710;9.622;2023-02-14T09:42:37;4.30;99.90
4643;DHT22;2334;48.710;9.622;2023-02-14T09:45:09;4.60;99.90
4643;DHT22;2334;48.710;9.622;2023-02-14T09:47:43;4.80;99.90
4643;DHT22;2334;48.710;9.622;2023-02-14T09:50:16;4.90;99.90
4643;DHT22;2334;48.710;9.622;2023-02-14T09:52:46;5.10;99.90
4643;DHT22;2334;48.710;9.622;2023-02-14T09:55:16;5.10;99.90
4643;DHT22;2334;48.710;9.622;2023-02-14T09:57:55;5.20;99.90
4643;DHT22;2334;48.710;9.622;2023-02-14T10:00:33;5.40;99.90
4643;DHT22;2334;48.710;9.622;2023-02-14T10:05:56;5.80;99.90
4643;DHT22;2334;48.710;9.622;2023-02-14T10:08:37;5.70;99.90
4643;DHT22;2334;48.710;9.622;2023-02-14T10:11:10;6.20;99.90
4643;DHT22;2334;48.710;9.622;2023-02-14T10:13:43;6.20;99.90
4643;DHT22;2334;48.710;9.622;2023-02-14T10:16:17;6.40;99.90
4643;DHT22;2334;48.710;9.622;2023-02-14T10:18:52;6.40;99.90
4643;DHT22;2334;48.710;9.622;2023-02-14T10:21:23;6.40;99.90
4643;DHT22;2334;48.710;9.622;2023-02-14T10:23:57;6.50;99.90
4643;DHT22;2334;48.710;9.622;2023-02-14T10:26:29;6.40;99.90
4643;DHT22;2334;48.710;9.622;2023-02-14T10:28:58;6.40;99.90
4643;DHT22;2334;48.710;9.622;2023-02-14T10:31:28;6.60;99.90
4643;DHT22;2334;48.710;9.622;2023-02-14T10:34:05;6.90;99.90
4643;DHT22;2334;48.710;9.622;2023-02-14T10:39:55;7.30;99.90
4643;DHT22;2334;48.710;9.622;2023-02-14T10:42:32;7.50;99.90
4643;DHT22;2334;48.710;9.622;2023-02-14T10:45:10;7.90;99.90
4643;DHT22;2334;48.710;9.622;2023-02-14T10:47:44;8.00;99.90
4643;DHT22;2334;48.710;9.622;2023-02-14T10:50:20;8.30;99.90
4643;DHT22;2334;48.710;9.622;2023-02-14T10:52:57;8.30;99.90
4643;DHT22;2334;48.710;9.622;2023-02-14T10:55:38;8.30;99.90
4643;DHT22;2334;48.710;9.622;2023-02-14T10:58:10;8.50;99.90
4643;DHT22;2334;48.710;9.622;2023-02-14T11:00:49;8.90;99.90
4643;DHT22;2334;48.710;9.622;2023-02-14T11:03:19;9.10;99.90
4643;DHT22;2334;48.710;9.622;2023-02-14T11:05:47;8.60;99.90
4643;DHT22;2334;48.710;9.622;2023-02-14T11:08:21;8.80;99.90
4643;DHT22;2334;48.710;9.622;2023-02-14T11:10:51;9.10;99.90
4643;DHT22;2334;48.710;9.622;2023-02-14T11:13:34;9.30;99.90
4643;DHT22;2334;48.710;9.622;2023-02-14T11:16:03;9.50;99.90
4643;DHT22;2334;48.710;9.622;2023-02-14T11:18:32;9.70;99.90
4643;DHT22;2334;48.710;9.622;2023-02-14T11:21:04;9.80;99.90
4643;DHT22;2334;48.710;9.622;2023-02-14T11:23:34;9.70;99.90
4643;DHT22;2334;48.710;9.622;2023-02-14T11:26:03;9.70;99.90
4643;DHT22;2334;48.710;9.622;2023-02-14T11:28:31;9.90;99.90
4643;DHT22;2334;48.710;9.622;2023-02-14T11:30:59;9.70;99.90
4643;DHT22;2334;48.710;9.622;2023-02-14T11:33:37;9.70;99.90
4643;DHT22;2334;48.710;9.622;2023-02-14T11:36:10;9.90;99.90
4643;DHT22;2334;48.710;9.622;2023-02-14T11:38:38;9.80;99.90
4643;DHT22;2334;48.710;9.622;2023-02-14T11:41:08;9.90;99.90
4643;DHT22;2334;48.710;9.622;2023-02-14T11:43:37;10.10;99.90
4643;DHT22;2334;48.710;9.622;2023-02-14T11:46:11;10.40;99.90
4643;DHT22;2334;48.710;9.622;2023-02-14T11:48:38;10.50;99.90
4643;DHT22;2334;48.710;9.622;2023-02-14T11:51:25;10.10;99.90
4643;DHT22;2334;48.710;9.622;2023-02-14T11:53:54;10.00;99.90
4643;DHT22;2334;48.710;9.622;2023-02-14T11:56:45;9.80;99.90
4643;DHT22;2334;48.710;9.622;2023-02-14T11:59:23;10.10;99.90
4643;DHT22;2334;48.710;9.622;2023-02-14T12:01:51;10.20;99.90
4643;DHT22;2334;48.710;9.622;2023-02-14T12:04:20;10.20;99.90
4643;DHT22;2334;48.710;9.622;2023-02-14T12:06:50;10.60;99.90
4643;DHT22;2334;48.710;9.622;2023-02-14T12:09:25;10.60;99.90
4643;DHT22;2334;48.710;9.622;2023-02-14T12:11:54;10.80;99.90
4643;DHT22;2334;48.710;9.622;2023-02-14T12:14:23;10.60;99.90
4643;DHT22;2334;48.710;9.622;2023-02-14T12:16:55;10.50;99.90
4643;DHT22;2334;48.710;9.622;2023-02-14T12:19:31;10.50;99.90
4643;DHT22;2334;48.710;9.622;2023-02-14T12:22:03;10.50;99.90
4643;DHT22;2334;48.710;9.622;2023-02-14T12:24:34;10.60;99.90
4643;DHT22;2334;48.710;9.622;2023-02-14T12:27:12;10.80;99.90
4643;DHT22;2334;48.710;9.622;2023-02-14T12:29:47;11.00;99.90
4643;DHT22;2334;48.710;9.622;2023-02-14T12:32:20;11.00;99.90
4643;DHT22;2334;48.710;9.622;2023-02-14T12:34:48;11.10;99.90
4643;DHT22;2334;48.710;9.622;2023-02-14T12:37:25;11.20;99.90
4643;DHT22;2334;48.710;9.622;2023-02-14T12:40:17;11.30;99.90
4643;DHT22;2334;48.710;9.622;2023-02-14T12:43:01;11.10;99.90
4643;DHT22;2334;48.710;9.622;2023-02-14T12:46:06;11.30;99.90
4643;DHT22;2334;48.710;9.622;2023-02-14T12:48:52;11.10;99.90
4643;DHT22;2334;48.710;9.622;2023-02-14T12:51:25;10.80;99.90
4643;DHT22;2334;48.710;9.622;2023-02-14T12:54:03;10.80;99.90
4643;DHT22;2334;48.710;9.622;2023-02-14T12:56:41;10.50;99.90
4643;DHT22;2334;48.710;9.622;2023-02-14T12:59:20;10.40;99.90
4643;DHT22;2334;48.710;9.622;2023-02-14T13:02:02;10.30;99.90
4643;DHT22;2334;48.710;9.622;2023-02-14T13:04:47;10.40;99.90
4643;DHT22;2334;48.710;9.622;2023-02-14T13:07:25;10.40;99.90
4643;DHT22;2334;48.710;9.622;2023-02-14T13:10:12;10.40;99.90
4643;DHT22;2334;48.710;9.622;2023-02-14T13:12:43;10.50;99.90
4643;DHT22;2334;48.710;9.622;2023-02-14T13:15:19;10.50;99.90
4643;DHT22;2334;48.710;9.622;2023-02-14T13:17:50;10.50;99.90
4643;DHT22;2334;48.710;9.622;2023-02-14T13:20:37;10.50;99.90
4643;DHT22;2334;48.710;9.622;2023-02-14T13:23:10;10.50;99.90
4643;DHT22;2334;48.710;9.622;2023-02-14T13:25:42;10.50;99.90
4643;DHT22;2334;48.710;9.622;2023-02-14T13:28:15;10.40;99.90
4643;DHT22;2334;48.710;9.622;2023-02-14T13:30:42;10.50;99.90
4643;DHT22;2334;48.710;9.622;2023-02-14T13:33:23;10.70;99.90
4643;DHT22;2334;48.710;9.622;2023-02-14T13:35:54;10.70;99.90
4643;DHT22;2334;48.710;9.622;2023-02-14T13:38:23;10.70;99.90
4643;DHT22;2334;48.710;9.622;2023-02-14T13:40:52;10.80;99.90
4643;DHT22;2334;48.710;9.622;2023-02-14T13:43:52;10.90;99.90
4643;DHT22;2334;48.710;9.622;2023-02-14T13:49:24;10.70;99.90
4643;DHT22;2334;48.710;9.622;2023-02-14T13:51:54;10.80;99.90
4643;DHT22;2334;48.710;9.622;2023-02-14T13:54:30;10.90;99.90
4643;DHT22;2334;48.710;9.622;2023-02-14T13:57:00;11.00;99.90
4643;DHT22;2334;48.710;9.622;2023-02-14T13:59:30;11.10;99.90
4643;DHT22;2334;48.710;9.622;2023-02-14T14:02:29;11.00;99.90
4643;DHT22;2334;48.710;9.622;2023-02-14T14:04:57;11.10;99.90
4643;DHT22;2334;48.710;9.622;2023-02-14T14:07:25;11.10;99.90
4643;DHT22;2334;48.710;9.622;2023-02-14T14:10:00;11.20;99.90
4643;DHT22;2334;48.710;9.622;2023-02-14T14:12:40;11.20;99.90
4643;DHT22;2334;48.710;9.622;2023-02-14T14:15:16;11.20;99.90
4643;DHT22;2334;48.710;9.622;2023-02-14T14:17:47;11.20;99.90
4643;DHT22;2334;48.710;9.622;2023-02-14T14:20:45;11.20;99.90
4643;DHT22;2334;48.710;9.622;2023-02-14T14:23:31;11.10;99.90
4643;DHT22;2334;48.710;9.622;2023-02-14T14:25:59;11.20;99.90
4643;DHT22;2334;48.710;9.622;2023-02-14T14:28:30;11.20;99.90
4643;DHT22;2334;48.710;9.622;2023-02-14T14:30:58;11.20;99.90
4643;DHT22;2334;48.710;9.622;2023-02-14T14:33:28;11.20;99.90
4643;DHT22;2334;48.710;9.622;2023-02-14T14:35:57;11.20;99.90
4643;DHT22;2334;48.710;9.622;2023-02-14T14:38:24;11.20;99.90
4643;DHT22;2334;48.710;9.622;2023-02-14T14:40:52;11.30;99.90
4643;DHT22;2334;48.710;9.622;2023-02-14T14:43:25;11.30;99.90
4643;DHT22;2334;48.710;9.622;2023-02-14T14:45:54;11.40;99.90
4643;DHT22;2334;48.710;9.622;2023-02-14T14:48:28;11.40;99.90
4643;DHT22;2334;48.710;9.622;2023-02-14T14:50:56;11.30;99.90
4643;DHT22;2334;48.710;9.622;2023-02-14T14:53:27;11.30;99.90
4643;DHT22;2334;48.710;9.622;2023-02-14T14:55:55;11.30;99.90
4643;DHT22;2334;48.710;9.622;2023-02-14T14:58:35;11.20;99.90
4643;DHT22;2334;48.710;9.622;2023-02-14T15:01:06;11.30;99.90
4643;DHT22;2334;48.710;9.622;2023-02-14T15:03:34;11.30;99.90
4643;DHT22;2334;48.710;9.622;2023-02-14T15:06:08;11.30;99.90
4643;DHT22;2334;48.710;9.622;2023-02-14T15:08:35;11.20;99.90
4643;DHT22;2334;48.710;9.622;2023-02-14T15:11:06;11.20;99.90
4643;DHT22;2334;48.710;9.622;2023-02-14T15:13:38;11.10;99.90
4643;DHT22;2334;48.710;9.622;2023-02-14T15:16:31;11.00;99.90
4643;DHT22;2334;48.710;9.622;2023-02-14T15:19:07;10.90;99.90
4643;DHT22;2334;48.710;9.622;2023-02-14T15:21:34;10.90;99.90
4643;DHT22;2334;48.710;9.622;2023-02-14T15:24:02;10.80;99.90
4643;DHT22;2334;48.710;9.622;2023-02-14T15:26:31;10.80;99.90
4643;DHT22;2334;48.710;9.622;2023-02-14T15:29:00;10.70;99.90
4643;DHT22;2334;48.710;9.622;2023-02-14T15:31:29;10.70;99.90
4643;DHT22;2334;48.710;9.622;2023-02-14T15:33:58;10.60;99.90
4643;DHT22;2334;48.710;9.622;2023-02-14T15:36:27;10.60;99.90
4643;DHT22;2334;48.710;9.622;2023-02-14T15:38:55;10.50;99.90
4643;DHT22;2334;48.710;9.622;2023-02-14T15:41:23;10.50;99.90
4643;DHT22;2334;48.710;9.622;2023-02-14T15:43:52;10.40;99.90
4643;DHT22;2334;48.710;9.622;2023-02-14T15:46:27;10.40;99.90
4643;DHT22;2334;48.710;9.622;2023-02-14T15:48:58;10.30;99.90
4643;DHT22;2334;48.710;9.622;2023-02-14T15:51:28;10.20;99.90
4643;DHT22;2334;48.710;9.622;2023-02-14T15:53:57;10.20;99.90
4643;DHT22;2334;48.710;9.622;2023-02-14T15:56:26;10.00;99.90
4643;DHT22;2334;48.710;9.622;2023-02-14T15:58:59;10.10;99.90
4643;DHT22;2334;48.710;9.622;2023-02-14T16:01:27;9.90;99.90
4643;DHT22;2334;48.710;9.622;2023-02-14T16:03:57;9.80;99.90
4643;DHT22;2334;48.710;9.622;2023-02-14T16:06:43;9.70;99.90
4643;DHT22;2334;48.710;9.622;2023-02-14T16:09:24;9.60;99.90
4643;DHT22;2334;48.710;9.622;2023-02-14T16:11:51;9.50;99.90
4643;DHT22;2334;48.710;9.622;2023-02-14T16:14:26;9.40;99.90
4643;DHT22;2334;48.710;9.622;2023-02-14T16:16:55;9.30;99.90
4643;DHT22;2334;48.710;9.622;2023-02-14T16:19:35;9.20;99.90
4643;DHT22;2334;48.710;9.622;2023-02-14T16:22:03;9.10;99.90
4643;DHT22;2334;48.710;9.622;2023-02-14T16:24:32;9.10;99.90
4643;DHT22;2334;48.710;9.622;2023-02-14T16:27:00;9.00;99.90
4643;DHT22;2334;48.710;9.622;2023-02-14T16:29:32;8.90;99.90
4643;DHT22;2334;48.710;9.622;2023-02-14T16:32:08;8.80;99.90
4643;DHT22;2334;48.710;9.622;2023-02-14T16:34:37;8.70;99.90
4643;DHT22;2334;48.710;9.622;2023-02-14T16:37:06;8.60;99.90
4643;DHT22;2334;48.710;9.622;2023-02-14T16:39:33;8.50;99.90
4643;DHT22;2334;48.710;9.622;2023-02-14T16:42:02;8.30;99.90
4643;DHT22;2334;48.710;9.622;2023-02-14T16:44:29;8.30;99.90
4643;DHT22;2334;48.710;9.622;2023-02-14T16:46:56;8.20;99.90
4643;DHT22;2334;48.710;9.622;2023-02-14T16:49:23;8.10;99.90